Time;durP1;ratioP1;P1;durP2;ratioP2;P2;SDS_P1;SDS_P2;PMS_P1;PMS_P2;Temp;Humidity;BMP_temperature;BMP_pressure;BME280_temperature;BME280_humidity;BME280_pressure;Samples;Min_cycle;Max_cycle;Signal;HPM_P1;HPM_P2
2021/11/14 00:00:25;;;;;;;;;;;;;;;8.04;100.00;101686.41;5051286;28;19925;-53
2021/11/14 00:02:53;;;;;;;;;;;;;;;8.07;100.00;101683.69;5052258;28;19925;-51
2021/11/14 00:05:32;;;;;;;;;;;;;;;8.10;100.00;101677.47;5053141;28;19971;-52
2021/11/14 00:07:59;;;;;;;;;;;;;;;8.10;100.00;101688.78;5053238;28;19925;-52
2021/11/14 00:10:26;;;;;;;;;;;;;;;8.08;100.00;101679.28;5051892;28;20346;-52
2021/11/14 00:12:54;;;;;;;;;;;;;;;8.12;100.00;101678.22;5053154;28;19925;-51
2021/11/14 00:15:20;;;;;;;;;;;;;;;8.12;100.00;101683.47;5053224;28;19925;-50
2021/11/14 00:17:47;;;;;;;;;;;;;;;8.13;100.00;101686.03;5052864;28;19968;-51
2021/11/14 00:20:14;;;;;;;;;;;;;;;8.09;100.00;101688.84;5053039;28;20489;-50
2021/11/14 00:22:41;;;;;;;;;;;;;;;8.09;100.00;101691.47;5052531;28;19929;-54
2021/11/14 00:25:08;;;;;;;;;;;;;;;8.10;100.00;101685.31;5049759;28;19928;-54
2021/11/14 00:27:34;;;;;;;;;;;;;;;8.03;100.00;101703.06;5050868;28;20388;-51
2021/11/14 00:30:02;;;;;;;;;;;;;;;7.95;100.00;101698.13;5050860;28;19929;-52
2021/11/14 00:32:29;;;;;;;;;;;;;;;7.95;100.00;101700.75;5052866;28;19974;-50
2021/11/14 00:34:56;;;;;;;;;;;;;;;7.90;100.00;101702.69;5052923;28;19979;-53
2021/11/14 00:37:22;;;;;;;;;;;;;;;7.92;100.00;101702.63;5051787;28;19929;-53
2021/11/14 00:39:49;;;;;;;;;;;;;;;7.91;100.00;101706.16;5052525;28;19936;-49
2021/11/14 00:42:16;;;;;;;;;;;;;;;7.72;100.00;101706.91;5052632;28;19929;-45
2021/11/14 00:44:42;;;;;;;;;;;;;;;7.74;100.00;101699.84;5052356;28;20525;-48
2021/11/14 00:47:10;;;;;;;;;;;;;;;7.80;100.00;101711.84;5052942;28;20319;-46
2021/11/14 00:49:36;;;;;;;;;;;;;;;7.73;100.00;101707.72;5052329;28;19925;-46
2021/11/14 00:52:03;;;;;;;;;;;;;;;7.77;100.00;101715.44;5052473;28;19929;-46
2021/11/14 00:54:30;;;;;;;;;;;;;;;7.77;100.00;101709.31;5052460;28;19979;-45
2021/11/14 00:56:57;;;;;;;;;;;;;;;7.75;100.00;101711.16;5052428;28;19978;-46
2021/11/14 00:59:23;;;;;;;;;;;;;;;7.71;100.00;101714.81;5052305;28;19925;-48
2021/11/14 01:01:50;;;;;;;;;;;;;;;7.68;100.00;101720.19;5052478;28;19929;-46
2021/11/14 01:04:17;;;;;;;;;;;;;;;7.76;100.00;101715.50;5050556;28;19925;-47
2021/11/14 01:06:43;;;;;;;;;;;;;;;7.73;100.00;101718.22;5050837;28;19936;-44
2021/11/14 01:09:11;;;;;;;;;;;;;;;7.78;100.00;101721.50;5052402;28;19979;-44
2021/11/14 01:11:37;;;;;;;;;;;;;;;7.71;100.00;101717.44;5054917;28;19928;-48
2021/11/14 01:14:04;;;;;;;;;;;;;;;7.75;100.00;101719.03;5056066;28;19929;-48
2021/11/14 01:16:31;;;;;;;;;;;;;;;7.79;100.00;101720.59;5055195;28;20299;-43
2021/11/14 01:18:58;;;;;;;;;;;;;;;7.86;100.00;101724.69;5054867;28;19925;-47
2021/11/14 01:21:27;;;;;;;;;;;;;;;7.93;100.00;101720.03;5054990;28;19925;-46
2021/11/14 01:23:55;;;;;;;;;;;;;;;7.97;100.00;101716.38;5055901;28;19979;-46
2021/11/14 01:26:22;;;;;;;;;;;;;;;7.94;100.00;101733.06;5056032;28;19978;-48
2021/11/14 01:28:48;;;;;;;;;;;;;;;7.89;100.00;101742.03;5052517;28;19937;-43
2021/11/14 01:31:15;;;;;;;;;;;;;;;7.87;100.00;101730.78;5053738;28;19935;-44
2021/11/14 01:33:42;;;;;;;;;;;;;;;7.86;100.00;101732.53;5053789;28;20412;-45
2021/11/14 01:36:09;;;;;;;;;;;;;;;7.85;100.00;101735.22;5051617;28;19936;-47
2021/11/14 01:38:35;;;;;;;;;;;;;;;7.85;100.00;101741.28;5053369;28;19929;-48
2021/11/14 01:41:06;;;;;;;;;;;;;;;7.93;100.00;101741.00;5051773;28;19933;-45
2021/11/14 01:43:35;;;;;;;;;;;;;;;7.93;100.00;101743.63;5047506;28;19928;-45
2021/11/14 01:46:02;;;;;;;;;;;;;;;7.93;100.00;101754.97;5044789;28;19925;-47
2021/11/14 01:48:28;;;;;;;;;;;;;;;7.89;100.00;101755.97;5053356;28;19931;-46
2021/11/14 01:50:55;;;;;;;;;;;;;;;7.89;100.00;101758.59;5039078;28;19983;-45
2021/11/14 01:53:22;;;;;;;;;;;;;;;7.87;100.00;101767.44;5042702;28;19928;-45
2021/11/14 01:55:49;;;;;;;;;;;;;;;7.93;100.00;101762.81;5052090;28;19929;-45
2021/11/14 01:58:17;;;;;;;;;;;;;;;7.89;100.00;101765.59;5051010;28;19936;-43
2021/11/14 02:00:54;;;;;;;;;;;;;;;7.90;100.00;101767.31;5035548;28;19925;-44
2021/11/14 02:03:22;;;;;;;;;;;;;;;7.88;100.00;101762.16;5050345;28;19925;-44
2021/11/14 02:05:49;;;;;;;;;;;;;;;7.90;100.00;101768.16;5060481;28;19931;-45
2021/11/14 02:08:15;;;;;;;;;;;;;;;7.95;100.00;101773.25;5044562;28;20439;-44
2021/11/14 02:10:43;;;;;;;;;;;;;;;7.89;100.00;101768.22;5037769;28;19988;-46
2021/11/14 02:13:10;;;;;;;;;;;;;;;7.85;100.00;101771.88;5039172;28;19924;-47
2021/11/14 02:15:37;;;;;;;;;;;;;;;7.89;100.00;101774.31;5059480;28;19934;-49
2021/11/14 02:18:05;;;;;;;;;;;;;;;7.91;100.00;101774.28;5051626;28;19924;-45
2021/11/14 02:20:32;;;;;;;;;;;;;;;7.83;100.00;101779.81;5051721;28;19935;-48
2021/11/14 02:22:58;;;;;;;;;;;;;;;7.87;100.00;101778.78;5060916;28;19960;-49
2021/11/14 02:25:25;;;;;;;;;;;;;;;7.90;100.00;101781.25;5040306;28;20387;-47
2021/11/14 02:27:53;;;;;;;;;;;;;;;7.78;100.00;101785.22;5049527;28;20035;-47
2021/11/14 02:30:21;;;;;;;;;;;;;;;7.77;100.00;101783.50;5046059;28;19978;-46
2021/11/14 02:32:48;;;;;;;;;;;;;;;7.74;100.00;101791.50;5041697;28;19940;-46
2021/11/14 02:35:34;;;;;;;;;;;;;;;7.72;100.00;101789.84;5042530;28;19960;-46
2021/11/14 02:38:02;;;;;;;;;;;;;;;7.75;100.00;101793.19;5026543;28;19971;-45
2021/11/14 02:40:28;;;;;;;;;;;;;;;7.73;100.00;101799.38;5037011;28;19937;-45
2021/11/14 02:42:55;;;;;;;;;;;;;;;7.72;100.00;101802.94;5050438;28;20294;-46
2021/11/14 02:45:23;;;;;;;;;;;;;;;7.75;100.00;101806.28;5050262;28;20403;-46
2021/11/14 02:47:51;;;;;;;;;;;;;;;7.77;100.00;101803.59;5047196;28;19925;-46
2021/11/14 02:50:18;;;;;;;;;;;;;;;7.76;100.00;101807.16;5050351;28;19925;-46
2021/11/14 02:52:44;;;;;;;;;;;;;;;7.78;100.00;101806.19;5052394;28;19979;-44
2021/11/14 02:55:12;;;;;;;;;;;;;;;7.79;100.00;101807.88;5069815;28;19924;-45
2021/11/14 02:57:38;;;;;;;;;;;;;;;7.80;100.00;101816.59;5054332;28;19924;-44
2021/11/14 03:00:09;;;;;;;;;;;;;;;7.77;100.00;101821.94;5054359;28;19978;-47
2021/11/14 03:02:36;;;;;;;;;;;;;;;7.78;100.00;101824.50;5054112;28;20319;-49
2021/11/14 03:05:07;;;;;;;;;;;;;;;7.79;100.00;101812.25;5054135;28;20023;-48
2021/11/14 03:07:34;;;;;;;;;;;;;;;7.85;100.00;101821.66;5052978;28;20457;-46
2021/11/14 03:10:01;;;;;;;;;;;;;;;7.86;100.00;101820.75;5054215;28;19936;-47
2021/11/14 03:12:28;;;;;;;;;;;;;;;7.84;100.00;101825.16;5069325;28;19947;-46
2021/11/14 03:14:56;;;;;;;;;;;;;;;7.89;100.00;101826.69;5069345;28;19950;-46
2021/11/14 03:17:22;;;;;;;;;;;;;;;7.89;100.00;101824.06;5052933;28;19960;-46
2021/11/14 03:19:49;;;;;;;;;;;;;;;7.93;100.00;101824.81;5052894;28;19947;-45
2021/11/14 03:22:16;;;;;;;;;;;;;;;7.98;100.00;101830.75;5053784;28;19925;-44
2021/11/14 03:24:42;;;;;;;;;;;;;;;7.99;100.00;101832.47;5053769;28;20428;-48
2021/11/14 03:27:10;;;;;;;;;;;;;;;7.98;100.00;101829.91;5053855;28;19925;-45
2021/11/14 03:29:36;;;;;;;;;;;;;;;8.00;100.00;101834.13;5068781;28;19955;-45
2021/11/14 03:32:04;;;;;;;;;;;;;;;8.05;100.00;101834.81;5053666;28;19928;-44
2021/11/14 03:34:31;;;;;;;;;;;;;;;8.05;100.00;101828.75;5053293;28;19936;-45
2021/11/14 03:36:58;;;;;;;;;;;;;;;8.08;100.00;101836.47;5053418;28;19929;-56
2021/11/14 03:39:25;;;;;;;;;;;;;;;8.08;100.00;101836.47;5051892;28;19924;-53
2021/11/14 03:41:54;;;;;;;;;;;;;;;8.05;100.00;101840.06;5051666;28;19960;-54
2021/11/14 03:44:20;;;;;;;;;;;;;;;8.09;100.00;101839.03;5053280;28;19932;-50
2021/11/14 03:46:47;;;;;;;;;;;;;;;8.08;100.00;101844.34;5052477;28;19924;-53
2021/11/14 03:49:14;;;;;;;;;;;;;;;8.11;100.00;101849.44;5051091;28;19928;-54
2021/11/14 03:51:41;;;;;;;;;;;;;;;8.21;100.00;101853.44;5052595;28;20016;-52
2021/11/14 03:54:07;;;;;;;;;;;;;;;8.12;100.00;101854.63;5053460;28;19979;-54
2021/11/14 03:56:34;;;;;;;;;;;;;;;8.11;100.00;101863.44;5053385;28;20012;-53
2021/11/14 03:59:02;;;;;;;;;;;;;;;8.09;100.00;101860.00;5053451;28;19931;-53
2021/11/14 04:01:28;;;;;;;;;;;;;;;8.11;100.00;101860.81;5053155;28;20050;-51
2021/11/14 04:03:55;;;;;;;;;;;;;;;8.11;100.00;101868.66;5053848;28;20345;-53
2021/11/14 04:06:22;;;;;;;;;;;;;;;8.06;100.00;101875.84;5053204;28;19995;-52
2021/11/14 04:08:49;;;;;;;;;;;;;;;8.11;100.00;101873.03;5053046;28;19931;-50
2021/11/14 04:11:15;;;;;;;;;;;;;;;8.08;100.00;101874.00;5051747;28;19925;-53
2021/11/14 04:13:42;;;;;;;;;;;;;;;8.12;100.00;101882.59;5051607;28;19932;-53
2021/11/14 04:16:09;;;;;;;;;;;;;;;8.13;100.00;101869.44;5051436;28;19955;-53
2021/11/14 04:18:36;;;;;;;;;;;;;;;8.17;100.00;101882.44;5052688;28;19928;-54
2021/11/14 04:21:03;;;;;;;;;;;;;;;8.19;100.00;101881.44;5052983;28;19971;-49
2021/11/14 04:23:30;;;;;;;;;;;;;;;8.18;100.00;101889.38;5052951;28;19932;-50
2021/11/14 04:25:57;;;;;;;;;;;;;;;8.22;100.00;101880.47;5052856;28;19932;-55
2021/11/14 04:28:23;;;;;;;;;;;;;;;8.23;100.00;101880.41;5052206;28;19925;-54
2021/11/14 04:30:50;;;;;;;;;;;;;;;8.22;100.00;101878.72;5066591;28;20346;-50
2021/11/14 04:33:17;;;;;;;;;;;;;;;8.26;100.00;101890.81;5050588;28;19978;-53
2021/11/14 04:35:44;;;;;;;;;;;;;;;8.29;100.00;101888.06;5068099;28;19932;-50
2021/11/14 04:38:10;;;;;;;;;;;;;;;8.20;100.00;101896.28;5051610;28;19975;-53
2021/11/14 04:40:39;;;;;;;;;;;;;;;8.13;100.00;101895.66;5051362;28;19932;-53
2021/11/14 04:43:07;;;;;;;;;;;;;;;8.15;100.00;101903.44;5052390;28;19925;-53
2021/11/14 04:45:33;;;;;;;;;;;;;;;8.21;100.00;101895.38;5048951;28;20536;-52
2021/11/14 04:48:00;;;;;;;;;;;;;;;8.17;100.00;101891.16;5066061;28;19931;-49
2021/11/14 04:50:27;;;;;;;;;;;;;;;8.18;100.00;101892.00;5066560;28;20346;-50
2021/11/14 04:52:54;;;;;;;;;;;;;;;8.20;100.00;101901.50;5050958;28;19932;-54
2021/11/14 04:55:20;;;;;;;;;;;;;;;8.22;100.00;101901.44;5052738;28;19979;-49
2021/11/14 04:57:50;;;;;;;;;;;;;;;8.21;100.00;101905.00;5052374;28;19974;-45
2021/11/14 05:00:19;;;;;;;;;;;;;;;8.22;100.00;101899.69;5050786;28;20985;-44
2021/11/14 05:02:46;;;;;;;;;;;;;;;8.22;100.00;101909.31;5050877;28;19935;-45
2021/11/14 05:05:13;;;;;;;;;;;;;;;8.21;100.00;101903.22;5052119;28;19932;-45
2021/11/14 05:07:40;;;;;;;;;;;;;;;8.25;100.00;101920.53;5052290;28;19941;-45
2021/11/14 05:10:06;;;;;;;;;;;;;;;8.21;100.00;101921.56;5052523;28;19924;-44
2021/11/14 05:12:33;;;;;;;;;;;;;;;8.21;100.00;101932.06;5052353;28;20020;-44
2021/11/14 05:15:00;;;;;;;;;;;;;;;8.22;100.00;101932.91;5051002;28;20257;-46
2021/11/14 05:17:27;;;;;;;;;;;;;;;8.24;100.00;101937.16;5067777;28;19935;-53
2021/11/14 05:19:53;;;;;;;;;;;;;;;8.20;100.00;101935.56;5067432;28;19928;-53
2021/11/14 05:22:20;;;;;;;;;;;;;;;8.24;100.00;101941.56;5050379;28;19929;-52
2021/11/14 05:24:47;;;;;;;;;;;;;;;8.27;100.00;101944.91;5051029;28;19929;-54
2021/11/14 05:27:13;;;;;;;;;;;;;;;8.32;100.00;101946.50;5067866;28;20326;-52
2021/11/14 05:29:40;;;;;;;;;;;;;;;8.25;100.00;101948.53;5050352;28;19963;-53
2021/11/14 05:32:07;;;;;;;;;;;;;;;8.26;100.00;101951.09;5049780;28;19974;-50
2021/11/14 05:34:33;;;;;;;;;;;;;;;8.26;100.00;101948.47;5051023;28;20388;-55
2021/11/14 05:37:00;;;;;;;;;;;;;;;8.20;100.00;101953.94;5051893;28;19928;-53
2021/11/14 05:39:27;;;;;;;;;;;;;;;8.18;100.00;101955.75;5051209;28;19928;-54
2021/11/14 05:41:53;;;;;;;;;;;;;;;8.19;100.00;101957.44;5051289;28;20355;-55
2021/11/14 05:44:20;;;;;;;;;;;;;;;8.18;100.00;101958.38;5052405;28;19967;-53
2021/11/14 05:46:47;;;;;;;;;;;;;;;8.16;100.00;101967.22;5052103;28;20384;-54
2021/11/14 05:49:14;;;;;;;;;;;;;;;8.18;100.00;101971.47;5052158;28;19928;-55
2021/11/14 05:51:41;;;;;;;;;;;;;;;8.23;100.00;101977.38;5052457;28;19926;-55
2021/11/14 05:54:08;;;;;;;;;;;;;;;8.27;100.00;101984.22;5052309;28;19931;-55
2021/11/14 05:56:35;;;;;;;;;;;;;;;8.31;100.00;101992.84;5051140;28;19925;-53
2021/11/14 06:01:55;;;;;;;;;;;;;;;8.36;100.00;101990.06;5055473;28;20408;-55
2021/11/14 06:07:01;;;;;;;;;;;;;;;8.37;100.00;101991.75;5068794;28;19924;-53
2021/11/14 06:09:27;;;;;;;;;;;;;;;8.39;100.00;101995.19;5054402;28;19971;-54
2021/11/14 06:11:54;;;;;;;;;;;;;;;8.40;100.00;101997.75;5054270;28;19967;-54
2021/11/14 06:14:20;;;;;;;;;;;;;;;8.43;100.00;102008.09;5055362;28;20395;-53
2021/11/14 06:16:47;;;;;;;;;;;;;;;8.40;100.00;102012.63;5055589;28;19932;-55
2021/11/14 06:19:14;;;;;;;;;;;;;;;8.37;100.00;102010.09;5054024;28;19940;-52
2021/11/14 06:21:41;;;;;;;;;;;;;;;8.43;100.00;102008.09;5054047;28;20371;-52
2021/11/14 06:24:07;;;;;;;;;;;;;;;8.42;100.00;102014.25;5070065;28;19932;-54
2021/11/14 06:26:34;;;;;;;;;;;;;;;8.41;100.00;102006.44;5055173;28;19924;-54
2021/11/14 06:29:01;;;;;;;;;;;;;;;8.40;100.00;102013.47;5055248;28;19925;-50
2021/11/14 06:31:27;;;;;;;;;;;;;;;8.39;100.00;102009.13;5054283;28;19936;-52
2021/11/14 06:33:54;;;;;;;;;;;;;;;8.33;100.00;102022.47;5068968;28;20406;-53
2021/11/14 06:36:21;;;;;;;;;;;;;;;8.35;100.00;102027.66;5053226;28;19929;-52
2021/11/14 06:38:47;;;;;;;;;;;;;;;8.38;100.00;102031.00;5054928;28;19932;-52
2021/11/14 06:41:14;;;;;;;;;;;;;;;8.41;100.00;102040.53;5055016;28;19925;-54
2021/11/14 06:43:41;;;;;;;;;;;;;;;8.39;100.00;102043.22;5055063;28;20006;-52
2021/11/14 06:46:07;;;;;;;;;;;;;;;8.41;100.00;102046.66;5054891;28;20402;-50
2021/11/14 06:48:34;;;;;;;;;;;;;;;8.43;100.00;102044.81;5054182;28;20028;-53
2021/11/14 06:51:01;;;;;;;;;;;;;;;8.40;100.00;102054.56;5053115;28;20330;-54
2021/11/14 06:53:27;;;;;;;;;;;;;;;8.45;100.00;102058.75;5054361;28;20605;-56
2021/11/14 06:55:54;;;;;;;;;;;;;;;8.38;100.00;102066.88;5054643;28;19933;-55
2021/11/14 06:58:21;;;;;;;;;;;;;;;8.33;100.00;102063.56;5052560;28;19924;-53
2021/11/14 07:00:50;;;;;;;;;;;;;;;8.34;100.00;102073.97;5051857;28;19925;-54
2021/11/14 07:03:17;;;;;;;;;;;;;;;8.34;100.00;102068.72;5069509;28;19925;-54
2021/11/14 07:05:44;;;;;;;;;;;;;;;8.34;100.00;102071.34;5069719;28;20339;-50
2021/11/14 07:08:11;;;;;;;;;;;;;;;8.42;100.00;102078.94;5054136;28;20019;-52
2021/11/14 07:10:37;;;;;;;;;;;;;;;8.35;100.00;102085.34;5053227;28;20388;-52
2021/11/14 07:13:04;;;;;;;;;;;;;;;8.35;100.00;102085.34;5069801;28;20376;-54
2021/11/14 07:15:30;;;;;;;;;;;;;;;8.34;100.00;102088.84;5069881;28;19929;-52
2021/11/14 07:17:57;;;;;;;;;;;;;;;8.37;100.00;102092.25;5054560;28;19928;-49
2021/11/14 07:20:24;;;;;;;;;;;;;;;8.36;100.00;102101.00;5053155;28;19925;-54
2021/11/14 07:22:50;;;;;;;;;;;;;;;8.35;100.00;102109.78;5069630;28;19975;-53
2021/11/14 07:25:20;;;;;;;;;;;;;;;8.38;100.00;102112.28;5068231;28;19924;-53
2021/11/14 07:27:48;;;;;;;;;;;;;;;8.41;100.00;102116.56;5067751;28;19936;-53
2021/11/14 07:30:14;;;;;;;;;;;;;;;8.41;100.00;102117.44;5054217;28;20335;-53
2021/11/14 07:32:41;;;;;;;;;;;;;;;8.44;100.00;102119.09;5068965;28;19932;-48
2021/11/14 07:35:09;;;;;;;;;;;;;;;8.36;100.00;102118.50;5052947;28;19932;-51
2021/11/14 07:37:35;;;;;;;;;;;;;;;8.38;100.00;102120.13;5051382;28;19932;-47
2021/11/14 07:40:02;;;;;;;;;;;;;;;8.32;100.00;102130.84;5053652;28;20019;-47
2021/11/14 07:42:29;;;;;;;;;;;;;;;8.35;100.00;102141.22;5053189;28;19937;-45
2021/11/14 07:44:56;;;;;;;;;;;;;;;8.39;100.00;102140.22;5052993;28;19932;-46
2021/11/14 07:47:22;;;;;;;;;;;;;;;8.37;100.00;102134.19;5051924;28;19925;-45
2021/11/14 07:49:49;;;;;;;;;;;;;;;8.40;100.00;102133.22;5053382;28;19932;-47
2021/11/14 07:52:16;;;;;;;;;;;;;;;8.36;100.00;102139.47;5068703;28;19925;-52
2021/11/14 07:54:43;;;;;;;;;;;;;;;8.33;100.00;102142.19;5053699;28;20383;-54
2021/11/14 07:57:10;;;;;;;;;;;;;;;8.29;100.00;102139.69;5052847;28;20390;-52
2021/11/14 07:59:36;;;;;;;;;;;;;;;8.37;100.00;102151.66;5053237;28;19924;-53
2021/11/14 08:02:04;;;;;;;;;;;;;;;8.37;100.00;102151.66;5053556;28;19932;-50
2021/11/14 08:04:30;;;;;;;;;;;;;;;8.29;100.00;102154.56;5052259;28;19978;-50
2021/11/14 08:06:58;;;;;;;;;;;;;;;8.33;100.00;102158.78;5053776;28;19925;-52
2021/11/14 08:09:25;;;;;;;;;;;;;;;8.44;100.00;102159.25;5052366;28;19925;-53
2021/11/14 08:11:51;;;;;;;;;;;;;;;8.42;100.00;102170.72;5053549;28;20384;-50
2021/11/14 08:14:18;;;;;;;;;;;;;;;8.44;100.00;102167.13;5051739;28;19952;-49
2021/11/14 08:16:45;;;;;;;;;;;;;;;8.40;100.00;102175.16;5053016;28;20334;-47
2021/11/14 08:19:11;;;;;;;;;;;;;;;8.35;100.00;102174.47;5068087;28;19925;-47
2021/11/14 08:21:38;;;;;;;;;;;;;;;8.39;100.00;102178.69;5051895;28;19929;-48
2021/11/14 08:24:05;;;;;;;;;;;;;;;8.44;100.00;102180.25;5068244;28;19934;-53
2021/11/14 08:26:32;;;;;;;;;;;;;;;8.43;100.00;102182.91;5067822;28;20335;-52
2021/11/14 08:28:58;;;;;;;;;;;;;;;8.44;100.00;102189.88;5051482;28;19964;-53
2021/11/14 08:31:25;;;;;;;;;;;;;;;8.37;100.00;102190.97;5052584;28;19924;-51
2021/11/14 08:33:52;;;;;;;;;;;;;;;8.42;100.00;102192.53;5051723;28;19924;-53
2021/11/14 08:36:19;;;;;;;;;;;;;;;8.45;100.00;102202.09;5050364;28;19925;-53
2021/11/14 08:38:46;;;;;;;;;;;;;;;8.40;100.00;102206.63;5052825;28;20415;-52
2021/11/14 08:41:12;;;;;;;;;;;;;;;8.43;100.00;102204.72;5068298;28;20571;-52
2021/11/14 08:43:40;;;;;;;;;;;;;;;8.47;100.00;102202.91;5067349;28;20442;-54
2021/11/14 08:46:07;;;;;;;;;;;;;;;8.51;100.00;102207.13;5050830;28;19929;-53
2021/11/14 08:48:35;;;;;;;;;;;;;;;8.60;100.00;102214.69;5052269;28;19931;-46
2021/11/14 08:51:01;;;;;;;;;;;;;;;8.63;100.00;102213.72;5067483;28;19932;-51
2021/11/14 08:53:28;;;;;;;;;;;;;;;8.57;100.00;102214.78;5050173;28;19933;-53
2021/11/14 08:55:55;;;;;;;;;;;;;;;8.56;100.00;102217.44;5034260;28;19931;-55
2021/11/14 08:58:29;;;;;;;;;;;;;;;8.57;100.00;102217.38;5052765;28;19935;-55
2021/11/14 09:00:56;;;;;;;;;;;;;;;8.58;100.00;102221.75;5067557;28;19956;-51
2021/11/14 09:03:23;;;;;;;;;;;;;;;8.65;100.00;102225.00;5051106;28;19964;-54
2021/11/14 09:05:50;;;;;;;;;;;;;;;8.68;100.00;102224.03;5052031;28;19925;-52
2021/11/14 09:08:17;;;;;;;;;;;;;;;8.67;100.00;102227.56;5051243;28;19928;-54
2021/11/14 09:10:44;;;;;;;;;;;;;;;8.64;100.00;102233.78;5052231;28;20400;-50
2021/11/14 09:13:13;;;;;;;;;;;;;;;8.67;100.00;102235.44;5068040;28;19932;-51
2021/11/14 09:15:39;;;;;;;;;;;;;;;8.72;100.00;102251.88;5052782;28;19925;-51
2021/11/14 09:18:12;;;;;;;;;;;;;;;8.78;100.00;102259.50;5052627;28;19925;-54
2021/11/14 09:20:39;;;;;;;;;;;;;;;8.67;100.00;102252.06;5052528;28;19979;-50
2021/11/14 09:23:06;;;;;;;;;;;;;;;8.67;100.00;102256.41;5051392;28;20301;-45
2021/11/14 09:25:39;;;;;;;;;;;;;;;8.69;100.00;102270.34;5049057;28;19924;-46
2021/11/14 09:28:07;;;;;;;;;;;;;;;8.75;100.00;102276.25;5065831;28;19925;-46
2021/11/14 09:30:33;;;;;;;;;;;;;;;8.66;100.00;102266.06;5067969;28;19964;-52
2021/11/14 09:33:00;;;;;;;;;;;;;;;8.73;100.00;102269.34;5053053;28;19929;-51
2021/11/14 09:35:27;;;;;;;;;;;;;;;8.75;100.00;102270.13;5069482;28;20031;-52
2021/11/14 09:37:53;;;;;;;;;;;;;;;8.74;100.00;102278.91;5055553;28;20442;-53
2021/11/14 09:40:20;;;;;;;;;;;;;;;8.79;100.00;102283.09;5056293;28;19982;-53
2021/11/14 09:42:47;;;;;;;;;;;;;;;8.74;100.00;102274.53;5055958;28;19925;-53
2021/11/14 09:45:15;;;;;;;;;;;;;;;8.74;100.00;102286.75;5069406;28;19932;-51
2021/11/14 09:47:42;;;;;;;;;;;;;;;8.79;100.00;102282.22;5069700;28;20370;-54
2021/11/14 09:50:09;;;;;;;;;;;;;;;8.82;100.00;102287.38;5054721;28;19935;-54
2021/11/14 09:52:36;;;;;;;;;;;;;;;8.78;100.00;102291.00;5071233;28;19932;-52
2021/11/14 09:55:05;;;;;;;;;;;;;;;8.84;100.00;102292.56;5055887;28;19924;-54
2021/11/14 09:57:35;;;;;;;;;;;;;;;8.81;100.00;102293.53;5056087;28;20231;-53
2021/11/14 10:00:03;;;;;;;;;;;;;;;8.89;100.00;102293.25;5056023;28;19931;-52
2021/11/14 10:02:30;;;;;;;;;;;;;;;8.92;100.00;102298.41;5055283;28;19991;-45
2021/11/14 10:04:57;;;;;;;;;;;;;;;8.91;100.00;102294.91;5055319;28;19924;-54
2021/11/14 10:07:24;;;;;;;;;;;;;;;8.86;100.00;102289.00;5055923;28;20408;-46
2021/11/14 10:09:51;;;;;;;;;;;;;;;8.92;100.00;102294.00;5055183;28;19925;-47
2021/11/14 10:12:19;;;;;;;;;;;;;;;8.93;100.00;102300.09;5055189;28;19956;-46
2021/11/14 10:14:47;;;;;;;;;;;;;;;8.94;100.00;102296.56;5055615;28;20352;-50
2021/11/14 10:17:19;;;;;;;;;;;;;;;8.99;100.00;102310.41;5055541;28;20023;-54
2021/11/14 10:19:57;;;;;;;;;;;;;;;8.93;100.00;102300.97;5054189;28;19971;-54
2021/11/14 10:22:23;;;;;;;;;;;;;;;9.00;100.00;102303.38;5055207;28;20339;-53
2021/11/14 10:24:51;;;;;;;;;;;;;;;8.95;100.00;102309.63;5055244;28;19925;-55
2021/11/14 10:27:17;;;;;;;;;;;;;;;8.96;100.00;102310.50;5069535;28;19978;-46
2021/11/14 10:29:48;;;;;;;;;;;;;;;9.03;100.00;102304.13;5068906;28;20293;-52
2021/11/14 10:32:16;;;;;;;;;;;;;;;9.01;100.00;102311.19;5053330;28;19931;-55
2021/11/14 10:34:51;;;;;;;;;;;;;;;8.95;100.00;102314.88;5055193;28;19935;-54
2021/11/14 10:37:18;;;;;;;;;;;;;;;9.04;100.00;102311.09;5055027;28;20398;-49
2021/11/14 10:39:49;;;;;;;;;;;;;;;9.09;100.00;102311.78;5069961;28;19929;-45
2021/11/14 10:42:18;;;;;;;;;;;;;;;9.10;100.00;102318.72;5055037;28;19925;-49
2021/11/14 10:44:48;;;;;;;;;;;;;;;9.09;100.00;102317.03;5068917;28;19925;-49
2021/11/14 10:47:21;;;;;;;;;;;;;;;9.10;100.00;102323.13;5054710;28;19948;-54
2021/11/14 10:49:55;;;;;;;;;;;;;;;9.13;100.00;102329.16;5053126;28;19932;-54
2021/11/14 10:52:23;;;;;;;;;;;;;;;9.19;100.00;102321.94;5069155;28;19924;-54
2021/11/14 10:54:54;;;;;;;;;;;;;;;9.15;100.00;102331.72;5054704;28;19924;-55
2021/11/14 10:57:23;;;;;;;;;;;;;;;9.16;100.00;102329.94;5054883;28;20016;-51
2021/11/14 10:59:50;;;;;;;;;;;;;;;9.20;100.00;102334.16;5054478;28;19924;-51
2021/11/14 11:02:17;;;;;;;;;;;;;;;9.20;100.00;102329.75;5054078;28;20415;-54
2021/11/14 11:04:44;;;;;;;;;;;;;;;9.25;100.00;102333.09;5052691;28;19932;-54
2021/11/14 11:07:11;;;;;;;;;;;;;;;9.24;100.00;102341.91;5052950;28;19931;-54
2021/11/14 11:09:39;;;;;;;;;;;;;;;9.17;100.00;102340.38;5054251;28;20001;-53
2021/11/14 11:12:17;;;;;;;;;;;;;;;9.21;100.00;102341.97;5054515;28;19924;-54
2021/11/14 11:15:04;;;;;;;;;;;;;;;9.27;100.00;102340.91;5054361;28;20275;-54
2021/11/14 11:17:41;;;;;;;;;;;;;;;9.30;100.00;102338.19;5053164;28;19937;-55
2021/11/14 11:20:09;;;;;;;;;;;;;;;9.26;100.00;102344.47;5052618;28;20028;-54
2021/11/14 11:22:51;;;;;;;;;;;;;;;9.29;100.00;102346.97;5054087;28;19971;-52
2021/11/14 11:25:31;;;;;;;;;;;;;;;9.35;100.00;102343.25;5053900;28;19925;-56
2021/11/14 11:27:58;;;;;;;;;;;;;;;9.35;100.00;102348.50;5052201;28;19951;-53
2021/11/14 11:30:29;;;;;;;;;;;;;;;9.30;100.00;102352.16;5053286;28;19924;-52
2021/11/14 11:32:56;;;;;;;;;;;;;;;9.39;100.00;102352.75;5051401;28;19925;-54
2021/11/14 11:35:23;;;;;;;;;;;;;;;9.39;100.00;102360.63;5052368;28;19925;-54
2021/11/14 11:37:50;;;;;;;;;;;;;;;9.50;100.00;102361.06;5053517;28;19925;-53
2021/11/14 11:40:17;;;;;;;;;;;;;;;9.45;100.00;102356.00;5053710;28;19932;-55
2021/11/14 11:42:44;;;;;;;;;;;;;;;9.50;100.00;102361.06;5053936;28;20386;-54
2021/11/14 11:45:11;;;;;;;;;;;;;;;9.47;100.00;102361.19;5053875;28;19932;-53
2021/11/14 11:47:39;;;;;;;;;;;;;;;9.53;100.00;102358.34;5066424;28;19925;-53
2021/11/14 11:50:06;;;;;;;;;;;;;;;9.57;99.64;102365.22;5067029;28;20395;-52
2021/11/14 11:52:40;;;;;;;;;;;;;;;9.54;99.87;102357.44;5053970;28;19928;-55
2021/11/14 11:55:23;;;;;;;;;;;;;;;9.57;100.00;102359.09;5052594;28;19979;-50
2021/11/14 11:57:50;;;;;;;;;;;;;;;9.57;100.00;102354.72;5053706;28;19958;-53
2021/11/14 12:00:17;;;;;;;;;;;;;;;9.69;100.00;102352.53;5051248;28;19925;-53
2021/11/14 12:02:44;;;;;;;;;;;;;;;9.72;99.74;102358.53;5051063;28;19948;-54
2021/11/14 12:05:12;;;;;;;;;;;;;;;9.82;99.11;102359.03;5053394;28;19924;-55
2021/11/14 12:07:49;;;;;;;;;;;;;;;9.81;99.92;102358.16;5068435;28;20419;-50
2021/11/14 12:10:18;;;;;;;;;;;;;;;9.88;99.80;102355.31;5068374;28;19924;-49
2021/11/14 12:13:03;;;;;;;;;;;;;;;9.93;99.49;102356.00;5052955;28;19986;-47
2021/11/14 12:15:33;;;;;;;;;;;;;;;9.95;99.15;102360.28;5067903;28;20325;-50
2021/11/14 12:18:02;;;;;;;;;;;;;;;9.96;100.00;102374.28;5068494;28;19929;-49
2021/11/14 12:20:40;;;;;;;;;;;;;;;9.96;99.66;102364.59;5052101;28;20376;-45
2021/11/14 12:23:20;;;;;;;;;;;;;;;9.86;99.22;102358.00;5052779;28;20453;-49
2021/11/14 12:25:50;;;;;;;;;;;;;;;9.88;99.90;102366.69;5052666;28;19932;-47
2021/11/14 12:28:20;;;;;;;;;;;;;;;9.90;99.26;102362.22;5051192;28;20446;-47
2021/11/14 12:33:32;;;;;;;;;;;;;;;9.91;98.91;102358.69;5052374;28;19932;-48
2021/11/14 12:36:09;;;;;;;;;;;;;;;9.81;100.00;102362.56;5044074;28;19964;-45
2021/11/14 12:38:36;;;;;;;;;;;;;;;9.84;100.00;102367.72;5050324;28;19982;-50
2021/11/14 12:41:04;;;;;;;;;;;;;;;9.88;99.81;102365.81;5051511;28;19932;-51
2021/11/14 12:43:32;;;;;;;;;;;;;;;9.96;99.54;102366.41;5052756;28;20261;-53
2021/11/14 12:46:10;;;;;;;;;;;;;;;9.97;98.79;102358.44;5052841;28;19974;-44
2021/11/14 12:48:45;;;;;;;;;;;;;;;10.04;97.91;102361.69;5067494;28;20288;-45